Time;durP1;ratioP1;P1;durP2;ratioP2;P2;SDS_P1;SDS_P2;PMS_P1;PMS_P2;Temp;Humidity;BMP_temperature;BMP_pressure;BME280_temperature;BME280_humidity;BME280_pressure;Samples;Min_cycle;Max_cycle;Signal;HPM_P1;HPM_P2
2023/09/18 00:01:37;;;;;;;8.40;3.70;;;;;;;16.89;61.29;101789.45;107555;1254;110002;-63
2023/09/18 00:04:06;;;;;;;7.50;3.40;;;;;;;16.87;61.34;101793.60;107567;1254;108945;-63
2023/09/18 00:06:35;;;;;;;7.20;3.30;;;;;;;16.83;61.50;101791.48;107573;1253;97835;-63
2023/09/18 00:09:03;;;;;;;6.70;3.60;;;;;;;16.79;61.49;101790.86;107577;1254;98386;-63
2023/09/18 00:11:31;;;;;;;8.80;3.80;;;;;;;16.75;61.87;101791.02;107566;1256;111376;-63
2023/09/18 00:14:00;;;;;;;7.40;3.60;;;;;;;16.69;61.98;101793.02;107549;1253;109338;-63
2023/09/18 00:16:28;;;;;;;6.80;3.60;;;;;;;16.64;62.07;101790.45;107544;1253;107600;-63
2023/09/18 00:19:03;;;;;;;9.90;4.00;;;;;;;16.60;62.08;101793.98;107475;1257;97870;-63
2023/09/18 00:21:31;;;;;;;6.60;3.70;;;;;;;16.55;62.27;101794.41;107589;1253;97859;-63
2023/09/18 00:24:00;;;;;;;10.70;4.10;;;;;;;16.50;62.27;101792.01;107567;1254;111340;-63
2023/09/18 00:26:28;;;;;;;14.30;4.10;;;;;;;16.46;62.19;101789.91;107573;1253;110326;-63
2023/09/18 00:28:56;;;;;;;8.80;3.90;;;;;;;16.38;62.42;101791.55;107559;1254;107922;-63
2023/09/18 00:31:25;;;;;;;7.60;4.00;;;;;;;16.30;62.61;101786.56;107520;1253;98372;-63
2023/09/18 00:33:53;;;;;;;9.00;3.40;;;;;;;16.26;62.71;101787.14;107560;1253;97845;-62
2023/09/18 00:36:22;;;;;;;7.40;3.90;;;;;;;16.24;63.02;101784.05;107453;1253;111396;-62
2023/09/18 00:38:50;;;;;;;8.80;4.50;;;;;;;16.21;63.50;101780.50;107596;1254;109376;-62
2023/09/18 00:41:19;;;;;;;13.00;4.00;;;;;;;16.17;63.67;101785.26;107550;1253;106352;-62
2023/09/18 00:43:47;;;;;;;7.30;5.40;;;;;;;16.14;63.75;101786.84;107588;1254;97912;-62
2023/09/18 00:46:16;;;;;;;9.70;4.20;;;;;;;16.10;63.68;101783.23;107550;1254;98350;-62
2023/09/18 00:48:46;;;;;;;6.60;4.10;;;;;;;16.05;63.98;101788.42;107469;1254;111494;-62
2023/09/18 00:51:16;;;;;;;12.70;3.90;;;;;;;15.99;64.05;101787.70;107478;1254;109033;-63
2023/09/18 00:53:51;;;;;;;9.50;4.00;;;;;;;15.94;64.54;101789.55;107479;1257;108572;-63
2023/09/18 00:56:20;;;;;;;8.90;4.30;;;;;;;15.90;64.40;101789.98;107415;1253;97745;-62
2023/09/18 00:58:51;;;;;;;10.20;3.70;;;;;;;15.87;64.52;101788.66;107391;1254;98043;-64
2023/09/18 01:01:23;;;;;;;7.20;4.20;;;;;;;15.85;64.64;101786.84;107518;1254;111918;-62
2023/09/18 01:03:53;;;;;;;9.20;4.30;;;;;;;15.84;64.68;101786.20;107467;1254;108661;-62
2023/09/18 01:06:27;;;;;;;9.90;4.10;;;;;;;15.82;64.90;101783.70;107526;1253;107359;-62
2023/09/18 01:08:56;;;;;;;9.40;4.30;;;;;;;15.79;65.05;101783.08;107580;1253;98375;-62
2023/09/18 01:11:53;;;;;;;12.80;3.90;;;;;;;15.77;65.04;101778.36;107629;1252;97818;-62
2023/09/18 01:14:55;;;;;;;6.80;4.00;;;;;;;15.74;64.94;101777.70;107526;1253;111117;-63
2023/09/18 01:17:24;;;;;;;13.00;4.60;;;;;;;15.72;64.82;101773.20;107569;1253;109035;-63
2023/09/18 01:19:52;;;;;;;11.10;4.40;;;;;;;15.71;64.56;101774.98;107544;1254;106435;-62
2023/09/18 01:22:22;;;;;;;13.10;3.80;;;;;;;15.68;64.50;101775.41;107458;1254;97925;-67
2023/09/18 01:24:50;;;;;;;18.20;4.30;;;;;;;15.65;64.31;101774.73;107567;1254;97918;-62
2023/09/18 01:27:18;;;;;;;13.00;4.20;;;;;;;15.63;64.34;101777.51;107595;1254;112089;-63
2023/09/18 01:29:48;;;;;;;10.60;5.10;;;;;;;15.61;64.30;101776.05;107567;1251;108122;-62
2023/09/18 01:32:24;;;;;;;16.90;4.10;;;;;;;15.58;64.18;101779.02;107546;1254;108192;-62
2023/09/18 01:34:54;;;;;;;11.90;4.60;;;;;;;15.55;64.36;101773.94;107610;1253;97819;-62
2023/09/18 01:37:26;;;;;;;12.30;4.20;;;;;;;15.48;64.42;101779.26;107621;1253;97704;-62
2023/09/18 01:39:58;;;;;;;6.90;4.00;;;;;;;15.41;63.91;101780.09;107571;1253;113274;-62
2023/09/18 01:42:29;;;;;;;10.20;3.80;;;;;;;15.36;63.85;101782.20;107582;1256;108132;-62
2023/09/18 01:44:57;;;;;;;9.60;3.90;;;;;;;15.33;63.85;101781.31;107544;1254;108129;-62
2023/09/18 01:47:28;;;;;;;7.90;4.20;;;;;;;15.29;63.80;101778.80;107411;1254;97854;-62
2023/09/18 01:49:57;;;;;;;14.50;3.80;;;;;;;15.27;63.69;101778.79;107608;1254;98393;-62
2023/09/18 01:52:26;;;;;;;8.90;3.90;;;;;;;15.26;63.61;101781.27;107570;1252;111665;-63
2023/09/18 01:54:54;;;;;;;10.00;4.30;;;;;;;15.25;63.71;101780.11;107604;1256;110263;-62
2023/09/18 01:57:22;;;;;;;16.20;4.30;;;;;;;15.24;63.81;101778.04;107544;1256;108219;-63
2023/09/18 01:59:51;;;;;;;11.60;4.70;;;;;;;15.22;63.89;101776.92;107573;1256;97942;-64
2023/09/18 02:02:20;;;;;;;26.30;4.30;;;;;;;15.21;64.16;101779.02;107559;1253;97947;-64
2023/09/18 02:05:08;;;;;;;17.40;4.80;;;;;;;15.17;63.97;101780.98;107450;1252;111053;-64
2023/09/18 02:07:37;;;;;;;11.30;4.90;;;;;;;15.17;63.93;101780.31;107432;1254;108939;-64
2023/09/18 02:10:06;;;;;;;11.10;4.80;;;;;;;15.17;64.01;101782.45;107550;1253;107934;-63
2023/09/18 02:12:35;;;;;;;13.70;4.20;;;;;;;15.17;63.93;101784.45;107552;1254;97976;-63
2023/09/18 02:15:06;;;;;;;10.10;4.00;;;;;;;15.14;63.98;101783.99;107556;1254;97818;-64
2023/09/18 02:17:35;;;;;;;11.80;4.20;;;;;;;15.14;64.17;101787.04;107484;1253;111183;-63
2023/09/18 02:20:05;;;;;;;13.00;4.40;;;;;;;15.14;64.07;101788.53;107567;1253;110053;-64
2023/09/18 02:22:33;;;;;;;8.50;4.00;;;;;;;15.12;63.96;101785.41;107447;1253;106981;-64
2023/09/18 02:25:02;;;;;;;13.50;4.30;;;;;;;15.10;64.04;101784.19;107543;1254;97835;-63
2023/09/18 02:27:30;;;;;;;10.70;3.30;;;;;;;15.08;64.13;101785.41;107586;1254;98393;-64
2023/09/18 02:29:58;;;;;;;15.10;4.80;;;;;;;15.08;64.10;101785.95;107419;1253;110865;-64
2023/09/18 02:32:27;;;;;;;9.60;4.10;;;;;;;15.07;64.16;101787.12;107560;1254;109768;-64
2023/09/18 02:34:56;;;;;;;13.60;4.40;;;;;;;15.06;64.11;101785.27;107537;1256;107695;-63
2023/09/18 02:37:25;;;;;;;10.20;4.80;;;;;;;15.03;64.12;101783.58;107546;1253;98099;-63
2023/09/18 02:39:53;;;;;;;13.70;4.70;;;;;;;15.00;64.16;101785.27;107423;1253;97967;-63
2023/09/18 02:42:21;;;;;;;11.30;4.10;;;;;;;14.98;64.13;101784.04;107495;1253;111966;-63
2023/09/18 02:44:50;;;;;;;15.70;4.20;;;;;;;14.96;64.09;101783.98;107557;1252;109075;-62
2023/09/18 02:47:18;;;;;;;9.00;4.10;;;;;;;14.93;63.91;101780.80;107570;1253;108605;-63
2023/09/18 02:49:47;;;;;;;13.80;4.10;;;;;;;14.90;63.93;101783.67;107395;1253;97947;-63
2023/09/18 02:52:15;;;;;;;7.00;3.80;;;;;;;14.86;63.83;101784.16;107475;1257;97827;-63
2023/09/18 02:54:44;;;;;;;17.00;4.90;;;;;;;14.81;63.86;101782.13;107559;1252;110643;-62
2023/09/18 02:57:12;;;;;;;18.80;4.10;;;;;;;14.76;63.74;101780.37;107579;1253;108801;-63
2023/09/18 02:59:41;;;;;;;11.80;4.00;;;;;;;14.71;63.76;101779.19;107574;1252;107510;-62
2023/09/18 03:02:09;;;;;;;10.00;4.20;;;;;;;14.65;63.73;101777.02;107451;1253;97909;-62
2023/09/18 03:04:38;;;;;;;8.50;4.40;;;;;;;14.61;63.81;101778.64;107396;1253;97723;-63
2023/09/18 03:07:06;;;;;;;15.10;3.80;;;;;;;14.56;63.78;101776.53;107470;1253;111766;-62
2023/09/18 03:09:35;;;;;;;12.70;4.20;;;;;;;14.52;63.80;101781.18;107401;1253;110549;-62
2023/09/18 03:12:04;;;;;;;9.50;5.10;;;;;;;14.48;63.96;101777.95;107473;1253;107171;-63
2023/09/18 03:14:32;;;;;;;5.60;3.80;;;;;;;14.45;64.14;101774.43;107457;1254;98474;-63
2023/09/18 03:17:01;;;;;;;4.60;3.20;;;;;;;14.42;64.11;101780.13;107566;1253;97960;-63
2023/09/18 03:19:29;;;;;;;7.20;4.30;;;;;;;14.36;63.96;101781.36;107532;1256;110815;-63
2023/09/18 03:21:57;;;;;;;13.40;4.70;;;;;;;14.29;64.06;101782.38;107560;1253;110088;-63
2023/09/18 03:24:26;;;;;;;9.70;3.90;;;;;;;14.24;64.19;101782.45;107411;1253;108468;-63
2023/09/18 03:26:55;;;;;;;11.00;4.30;;;;;;;14.20;64.29;101785.98;107427;1257;97813;-64
2023/09/18 03:29:23;;;;;;;7.60;4.20;;;;;;;14.17;64.48;101785.77;107452;1255;98360;-64
2023/09/18 03:31:52;;;;;;;8.70;4.60;;;;;;;14.14;64.64;101788.75;107501;1254;111361;-64
2023/09/18 03:34:21;;;;;;;9.20;5.50;;;;;;;14.10;64.68;101785.83;107565;1252;109443;-63
2023/09/18 03:36:49;;;;;;;10.80;4.70;;;;;;;14.05;65.06;101788.95;107551;1256;108201;-63
2023/09/18 03:39:18;;;;;;;9.20;4.50;;;;;;;14.03;65.15;101792.42;107552;1254;98523;-63
2023/09/18 03:41:46;;;;;;;24.80;5.20;;;;;;;14.01;65.14;101794.67;107561;1253;98361;-63
2023/09/18 03:44:16;;;;;;;14.50;4.90;;;;;;;13.98;65.06;101794.61;107564;1254;111055;-63
2023/09/18 03:46:45;;;;;;;26.40;5.30;;;;;;;13.92;64.90;101790.77;107580;1254;109396;-63
2023/09/18 03:49:13;;;;;;;21.50;5.10;;;;;;;13.88;65.17;101790.56;107505;1252;108464;-62
2023/09/18 03:51:43;;;;;;;17.30;5.10;;;;;;;13.84;65.23;101785.90;107565;1254;97863;-63
2023/09/18 03:54:11;;;;;;;21.90;5.10;;;;;;;13.81;65.61;101784.73;107445;1254;97737;-64
2023/09/18 03:56:40;;;;;;;15.50;4.10;;;;;;;13.81;65.77;101787.26;107557;1253;111124;-63
2023/09/18 03:59:09;;;;;;;17.60;5.40;;;;;;;13.82;66.08;101788.82;107541;1253;109666;-63
2023/09/18 04:01:37;;;;;;;13.40;5.50;;;;;;;13.84;66.18;101792.06;107564;1252;107229;-67
2023/09/18 04:04:06;;;;;;;32.40;6.60;;;;;;;13.84;66.11;101795.11;107564;1252;97848;-64
2023/09/18 04:06:42;;;;;;;18.20;5.40;;;;;;;13.84;66.02;101792.95;107549;1252;97779;-64
2023/09/18 04:09:11;;;;;;;17.60;5.30;;;;;;;13.84;65.98;101796.41;107565;1253;110533;-65
2023/09/18 04:11:39;;;;;;;33.80;5.90;;;;;;;13.81;65.94;101796.79;107479;1253;109696;-64
2023/09/18 04:14:08;;;;;;;22.70;5.30;;;;;;;13.77;65.94;101797.99;107465;1254;108227;-64
2023/09/18 04:16:39;;;;;;;19.50;5.30;;;;;;;13.76;65.89;101800.64;107511;1252;97922;-65
2023/09/18 04:19:08;;;;;;;28.70;5.00;;;;;;;13.76;66.03;101800.46;107564;1252;97792;-65
2023/09/18 04:21:37;;;;;;;23.80;5.90;;;;;;;13.77;66.03;101799.29;107605;1253;112126;-65
2023/09/18 04:24:06;;;;;;;23.10;5.90;;;;;;;13.77;66.12;101801.06;107567;1254;109255;-62
2023/09/18 04:26:34;;;;;;;16.80;5.60;;;;;;;13.79;66.14;101802.53;107550;1253;107293;-64
2023/09/18 04:29:03;;;;;;;29.10;6.20;;;;;;;13.81;66.14;101803.65;107551;1253;98363;-63
2023/09/18 04:31:32;;;;;;;31.70;6.20;;;;;;;13.84;66.25;101806.30;107489;1253;98485;-62
2023/09/18 04:34:02;;;;;;;22.70;6.70;;;;;;;13.87;66.24;101804.98;107573;1253;111850;-64
2023/09/18 04:36:31;;;;;;;37.10;5.50;;;;;;;13.91;66.42;101806.16;107551;1256;110001;-64
2023/09/18 04:39:06;;;;;;;25.90;5.80;;;;;;;13.98;66.48;101806.20;107499;1253;108428;-63
2023/09/18 04:41:34;;;;;;;24.70;6.20;;;;;;;14.04;66.49;101812.17;107521;1254;97793;-64
2023/09/18 04:44:05;;;;;;;28.60;6.50;;;;;;;14.09;66.48;101815.52;107513;1252;97681;-64
2023/09/18 04:46:37;;;;;;;38.30;7.50;;;;;;;14.13;66.48;101817.54;107510;1253;111617;-64
2023/09/18 04:49:05;;;;;;;18.80;5.60;;;;;;;14.18;66.36;101819.05;107581;1256;108724;-64
2023/09/18 04:51:34;;;;;;;19.60;5.50;;;;;;;14.20;66.48;101821.17;107513;1253;108133;-62
2023/09/18 04:54:04;;;;;;;22.90;5.90;;;;;;;14.24;66.32;101820.33;107539;1254;97902;-63
2023/09/18 04:56:32;;;;;;;28.00;6.20;;;;;;;14.29;66.27;101822.47;107563;1252;98347;-64
2023/09/18 04:59:01;;;;;;;34.60;7.00;;;;;;;14.33;66.33;101825.15;107556;1253;111123;-64
2023/09/18 05:01:30;;;;;;;14.90;6.00;;;;;;;14.36;66.32;101826.09;107541;1254;108159;-63
2023/09/18 05:03:58;;;;;;;31.40;6.30;;;;;;;14.41;66.31;101825.85;107427;1253;108584;-64
2023/09/18 05:06:27;;;;;;;53.00;26.70;;;;;;;14.46;66.34;101824.77;107499;1253;97918;-63
2023/09/18 05:08:57;;;;;;;18.50;5.80;;;;;;;14.50;66.18;101821.13;107550;1254;98398;-64
2023/09/18 05:11:25;;;;;;;21.70;5.40;;;;;;;14.53;65.93;101822.83;107547;1253;111213;-63
2023/09/18 05:13:54;;;;;;;32.60;5.90;;;;;;;14.57;66.02;101821.59;107541;1253;109200;-62
2023/09/18 05:16:22;;;;;;;20.50;5.90;;;;;;;14.62;65.96;101818.84;107395;1253;108305;-63
2023/09/18 05:18:50;;;;;;;17.40;5.60;;;;;;;14.65;65.95;101819.98;107529;1254;97820;-62
2023/09/18 05:21:24;;;;;;;22.10;6.00;;;;;;;14.71;65.97;101815.52;107569;1252;98367;-63
2023/09/18 05:23:53;;;;;;;24.80;5.20;;;;;;;14.77;66.18;101811.56;107549;1256;111425;-64
2023/09/18 05:26:24;;;;;;;26.70;6.30;;;;;;;14.83;66.34;101809.05;107540;1254;109346;-63
2023/09/18 05:28:54;;;;;;;24.60;6.00;;;;;;;14.91;66.40;101813.57;107520;1252;107740;-63
2023/09/18 05:31:24;;;;;;;21.30;6.20;;;;;;;14.98;66.50;101813.95;107528;1254;97836;-63
2023/09/18 05:33:52;;;;;;;11.70;5.30;;;;;;;15.07;66.61;101814.68;107530;1256;98395;-63
2023/09/18 05:36:21;;;;;;;18.20;6.10;;;;;;;15.14;66.70;101810.21;107576;1254;112113;-63
2023/09/18 05:38:49;;;;;;;19.00;5.90;;;;;;;15.20;66.55;101808.19;107561;1254;109369;-64
2023/09/18 05:41:18;;;;;;;17.20;6.10;;;;;;;15.26;66.51;101808.35;107549;1254;108582;-63
2023/09/18 05:43:46;;;;;;;17.90;6.30;;;;;;;15.33;66.34;101810.80;107553;1252;97816;-64
2023/09/18 05:46:15;;;;;;;10.10;5.60;;;;;;;15.41;66.57;101810.27;107533;1254;98477;-63
2023/09/18 05:48:43;;;;;;;27.30;6.30;;;;;;;15.47;66.56;101810.46;107552;1253;111736;-64
2023/09/18 05:51:11;;;;;;;21.10;6.20;;;;;;;15.54;66.50;101813.39;107543;1253;109324;-64
2023/09/18 05:53:40;;;;;;;15.50;6.10;;;;;;;15.62;66.47;101815.02;107537;1252;107848;-65
2023/09/18 05:56:09;;;;;;;19.30;6.10;;;;;;;15.70;66.38;101814.13;107587;1254;97902;-64
2023/09/18 05:58:38;;;;;;;20.10;6.10;;;;;;;15.73;66.26;101812.52;107555;1252;97767;-64
2023/09/18 06:01:07;;;;;;;18.70;6.10;;;;;;;15.78;66.22;101810.95;107554;1254;111928;-64
2023/09/18 06:03:36;;;;;;;14.90;5.90;;;;;;;15.86;66.21;101810.14;107583;1254;109818;-63
2023/09/18 06:06:08;;;;;;;21.60;6.90;;;;;;;15.91;66.41;101811.77;107547;1254;107778;-64
2023/09/18 06:08:36;;;;;;;17.50;7.20;;;;;;;15.94;66.32;101812.89;107550;1256;98024;-64
2023/09/18 06:11:05;;;;;;;13.20;6.40;;;;;;;15.98;66.13;101814.56;107547;1253;98357;-64
2023/09/18 06:13:34;;;;;;;15.40;7.00;;;;;;;16.03;66.01;101820.76;107585;1254;112144;-63
2023/09/18 06:16:07;;;;;;;18.80;6.80;;;;;;;16.08;65.76;101821.92;107583;1254;109051;-63
2023/09/18 06:18:38;;;;;;;20.20;6.50;;;;;;;16.13;65.56;101822.77;107534;1256;107471;-64
2023/09/18 06:21:06;;;;;;;10.80;6.00;;;;;;;16.17;65.41;101823.46;107525;1254;97848;-63
2023/09/18 06:23:35;;;;;;;13.60;6.90;;;;;;;16.22;65.56;101825.81;107534;1253;97835;-63
2023/09/18 06:26:04;;;;;;;17.10;6.30;;;;;;;16.28;65.36;101823.10;107623;1252;110487;-64
2023/09/18 06:28:33;;;;;;;13.50;6.50;;;;;;;16.34;65.47;101821.64;107575;1254;108899;-64
2023/09/18 06:31:01;;;;;;;23.20;6.50;;;;;;;16.41;65.26;101824.89;107545;1254;107192;-64
2023/09/18 06:33:30;;;;;;;24.40;6.80;;;;;;;16.49;65.10;101823.86;107571;1254;98499;-63
2023/09/18 06:35:59;;;;;;;14.80;6.40;;;;;;;16.56;65.13;101821.46;107609;1253;98472;-63
2023/09/18 06:38:27;;;;;;;16.60;7.20;;;;;;;16.66;65.09;101823.13;107569;1254;111352;-63
2023/09/18 06:40:55;;;;;;;18.10;6.50;;;;;;;16.75;65.00;101823.11;107596;1254;109928;-64
2023/09/18 06:43:24;;;;;;;13.20;5.50;;;;;;;16.86;64.95;101823.48;107588;1253;108118;-63
2023/09/18 06:45:52;;;;;;;10.30;5.90;;;;;;;16.98;64.59;101823.38;107594;1253;97947;-64
2023/09/18 06:48:21;;;;;;;9.00;5.30;;;;;;;17.10;64.35;101822.61;107600;1254;98488;-64
2023/09/18 06:50:50;;;;;;;13.50;5.00;;;;;;;17.21;64.31;101824.70;107633;1254;111808;-63
2023/09/18 06:53:18;;;;;;;9.70;5.50;;;;;;;17.34;64.00;101827.66;107588;1255;112191;-63
2023/09/18 06:55:46;;;;;;;12.30;5.10;;;;;;;17.45;63.79;101829.75;107625;1253;108007;-65
2023/09/18 06:58:15;;;;;;;12.60;5.90;;;;;;;17.56;63.52;101833.77;107564;1255;97854;-64
2023/09/18 07:00:43;;;;;;;10.70;6.20;;;;;;;17.66;63.09;101840.52;107617;1252;97831;-65
2023/09/18 07:03:11;;;;;;;15.90;5.90;;;;;;;17.76;62.70;101836.86;107593;1252;112967;-63
2023/09/18 07:05:40;;;;;;;14.80;5.80;;;;;;;17.86;62.46;101840.91;107604;1253;108612;-64
2023/09/18 07:08:11;;;;;;;11.20;5.60;;;;;;;17.95;62.17;101836.65;107577;1254;108499;-64
2023/09/18 07:10:40;;;;;;;15.80;5.30;;;;;;;18.07;61.78;101831.33;107610;1254;97876;-63
2023/09/18 07:13:08;;;;;;;10.20;4.90;;;;;;;18.18;61.70;101835.98;107618;1253;97766;-64
2023/09/18 07:15:37;;;;;;;13.20;4.90;;;;;;;18.28;61.53;101834.23;107628;1251;111885;-64
2023/09/18 07:18:05;;;;;;;14.50;5.20;;;;;;;18.38;61.29;101832.30;107578;1254;110284;-64
2023/09/18 07:20:35;;;;;;;10.00;4.30;;;;;;;18.47;61.01;101834.54;107524;1255;108449;-63
2023/09/18 07:23:04;;;;;;;19.30;5.20;;;;;;;18.57;60.31;101833.73;107555;1253;97828;-64
2023/09/18 07:25:32;;;;;;;11.10;5.10;;;;;;;18.69;58.42;101830.23;107593;1254;97732;-64
2023/09/18 07:28:00;;;;;;;18.30;4.60;;;;;;;18.85;57.93;101827.48;107619;1254;111405;-64
2023/09/18 07:30:29;;;;;;;9.60;4.60;;;;;;;19.02;57.44;101825.54;107611;1254;110887;-64
2023/09/18 07:32:57;;;;;;;13.00;4.70;;;;;;;19.21;56.02;101829.30;107552;1255;108307;-63
2023/09/18 07:35:27;;;;;;;18.30;4.50;;;;;;;19.38;56.52;101823.69;107571;1253;97828;-64
2023/09/18 07:37:55;;;;;;;10.20;4.30;;;;;;;19.50;55.53;101819.71;107659;1252;97815;-63
2023/09/18 07:40:23;;;;;;;9.90;3.40;;;;;;;19.66;53.42;101821.09;107609;1253;110819;-63
2023/09/18 07:42:52;;;;;;;9.40;3.80;;;;;;;19.81;52.03;101815.58;107631;1254;109341;-64
2023/09/18 07:45:23;;;;;;;8.70;3.30;;;;;;;19.99;50.76;101812.59;107616;1254;108047;-63
2023/09/18 07:47:52;;;;;;;9.10;3.70;;;;;;;20.16;48.76;101814.23;107623;1253;98369;-64
2023/09/18 07:50:20;;;;;;;11.60;4.00;;;;;;;20.35;45.38;101813.76;107570;1253;98591;-64
2023/09/18 07:52:48;;;;;;;12.70;3.50;;;;;;;20.55;43.26;101814.06;107585;1253;110813;-63
2023/09/18 07:55:17;;;;;;;19.90;4.00;;;;;;;20.74;42.66;101813.48;107625;1254;109099;-64
2023/09/18 07:57:45;;;;;;;13.50;3.90;;;;;;;20.91;42.31;101810.59;107563;1256;108315;-64
2023/09/18 08:00:15;;;;;;;13.70;3.90;;;;;;;21.09;41.26;101809.86;107629;1253;97835;-64
2023/09/18 08:02:44;;;;;;;9.80;4.10;;;;;;;21.26;41.34;101810.49;107569;1253;98362;-65
2023/09/18 08:05:13;;;;;;;9.30;3.10;;;;;;;21.40;40.84;101807.81;107557;1254;112284;-63
2023/09/18 08:07:41;;;;;;;6.20;3.60;;;;;;;21.57;41.08;101810.06;107601;1251;108444;-64
2023/09/18 08:10:12;;;;;;;7.10;4.10;;;;;;;21.73;40.01;101808.74;107584;1254;108149;-65
2023/09/18 08:12:40;;;;;;;10.00;3.80;;;;;;;21.87;39.53;101811.59;107615;1254;97845;-64
2023/09/18 08:15:10;;;;;;;11.70;3.60;;;;;;;22.01;40.04;101809.36;107613;1254;97863;-64
2023/09/18 08:17:40;;;;;;;7.20;3.40;;;;;;;22.18;39.81;101803.87;107630;1254;110982;-63
2023/09/18 08:20:12;;;;;;;7.80;3.70;;;;;;;22.34;38.95;101809.21;107605;1254;109542;-64
2023/09/18 08:22:41;;;;;;;10.00;3.30;;;;;;;22.51;37.08;101806.73;107580;1254;108160;-63
2023/09/18 08:25:10;;;;;;;14.40;4.00;;;;;;;22.63;37.40;101801.23;107612;1254;97836;-65
2023/09/18 08:27:43;;;;;;;10.90;4.20;;;;;;;22.76;37.12;101802.10;107596;1254;97727;-65
2023/09/18 08:30:14;;;;;;;6.20;3.60;;;;;;;22.91;37.03;101796.16;107548;1254;112122;-65
2023/09/18 08:32:43;;;;;;;10.60;3.90;;;;;;;23.06;36.59;101798.40;107623;1254;109998;-65
2023/09/18 08:35:12;;;;;;;10.00;3.60;;;;;;;23.24;36.67;101796.83;107614;1252;108578;-65
2023/09/18 08:37:41;;;;;;;15.60;3.80;;;;;;;23.42;35.21;101790.92;107539;1254;98266;-65
2023/09/18 08:40:13;;;;;;;8.50;4.10;;;;;;;23.57;34.93;101791.83;107667;1254;97720;-66
2023/09/18 08:42:47;;;;;;;15.90;4.10;;;;;;;23.75;34.29;101786.68;107609;1254;111106;-64
2023/09/18 08:45:22;;;;;;;;;;;;;;;23.92;33.45;101788.52;107658;1256;109565;-64
2023/09/18 08:47:51;;;;;;;5.00;3.40;;;;;;;24.07;32.93;101781.49;107567;1255;108400;-63
2023/09/18 08:50:20;;;;;;;8.20;3.80;;;;;;;24.20;32.56;101781.86;107658;1254;97850;-64
2023/09/18 08:52:49;;;;;;;10.60;4.30;;;;;;;24.38;32.36;101786.78;107635;1254;97717;-64
2023/09/18 08:55:19;;;;;;;20.70;4.60;;;;;;;24.56;31.92;101783.23;107621;1254;111483;-65
2023/09/18 08:57:49;;;;;;;8.00;4.30;;;;;;;24.76;31.59;101785.96;107578;1254;110425;-65
2023/09/18 09:00:18;;;;;;;11.50;3.80;;;;;;;24.97;31.19;101787.58;107646;1254;108388;-64
2023/09/18 09:02:50;;;;;;;14.60;5.40;;;;;;;25.18;30.94;101788.52;107617;1254;97857;-64
2023/09/18 09:05:23;;;;;;;9.30;3.80;;;;;;;25.44;30.82;101786.88;107615;1254;97745;-66
2023/09/18 09:07:51;;;;;;;13.60;3.70;;;;;;;25.72;30.45;101782.40;107534;1254;111815;-64
2023/09/18 09:10:20;;;;;;;4.00;3.00;;;;;;;26.00;29.77;101791.68;107530;1254;109360;-64
2023/09/18 09:12:53;;;;;;;8.90;3.70;;;;;;;26.24;29.01;101792.85;107495;1254;108169;-64
2023/09/18 09:15:23;;;;;;;;;;;;;;;26.52;29.47;101784.48;107536;1254;97819;-64
2023/09/18 09:18:12;;;;;;;10.40;4.10;;;;;;;27.01;29.08;101777.50;107571;1254;98540;-64
2023/09/18 09:20:41;;;;;;;12.30;3.90;;;;;;;27.79;28.40;101775.85;107642;1254;111282;-64
2023/09/18 09:23:10;;;;;;;9.70;3.80;;;;;;;28.50;27.06;101771.84;107630;1255;109970;-65
2023/09/18 09:25:39;;;;;;;8.90;3.80;;;;;;;29.07;25.92;101777.96;107578;1256;107052;-65
2023/09/18 09:28:07;;;;;;;7.40;3.60;;;;;;;29.64;25.62;101766.06;107636;1254;97807;-66
2023/09/18 09:30:36;;;;;;;6.20;3.60;;;;;;;30.19;24.79;101776.67;107555;1253;98460;-63
2023/09/18 09:33:07;;;;;;;8.00;3.50;;;;;;;30.68;24.10;101771.43;107571;1251;111864;-64
2023/09/18 09:35:36;;;;;;;12.60;4.60;;;;;;;31.14;23.30;101774.84;107664;1254;108837;-64
2023/09/18 09:38:15;;;;;;;8.50;3.60;;;;;;;31.57;23.27;101764.08;107602;1253;108298;-65
2023/09/18 09:40:45;;;;;;;12.00;3.60;;;;;;;32.05;23.46;101757.91;107563;1253;97832;-63
2023/09/18 09:43:14;;;;;;;7.60;3.10;;;;;;;32.58;22.67;101759.52;107591;1254;97828;-65
2023/09/18 09:45:46;;;;;;;5.50;3.10;;;;;;;33.01;21.97;101751.52;107655;1254;111656;-65
2023/09/18 09:48:15;;;;;;;13.70;3.40;;;;;;;33.43;21.98;101744.31;107661;1256;109951;-63
2023/09/18 09:50:49;;;;;;;12.40;3.20;;;;;;;33.84;21.22;101748.95;107601;1254;107926;-64
2023/09/18 09:53:18;;;;;;;5.10;3.40;;;;;;;34.14;20.70;101748.95;107601;1254;97857;-64
2023/09/18 09:55:54;;;;;;;7.10;3.10;;;;;;;34.38;20.60;101744.14;107598;1255;98373;-64
2023/09/18 09:58:32;;;;;;;9.90;3.50;;;;;;;34.75;20.84;101743.23;107666;1256;110991;-65
2023/09/18 10:01:08;;;;;;;7.80;2.80;;;;;;;35.02;19.58;101747.43;107632;1254;110149;-65
2023/09/18 10:03:41;;;;;;;5.40;3.60;;;;;;;35.32;19.73;101744.87;107600;1254;108184;-65
2023/09/18 10:06:13;;;;;;;9.20;2.60;;;;;;;35.60;18.97;101739.22;107618;1254;97916;-67
2023/09/18 10:08:42;;;;;;;7.70;3.00;;;;;;;35.83;19.39;101732.83;106913;1254;1003555;-65
2023/09/18 10:11:16;;;;;;;11.60;2.80;;;;;;;36.35;19.22;101729.17;107676;1254;112168;-64
2023/09/18 10:13:59;;;;;;;8.00;2.60;;;;;;;36.74;18.26;101732.88;107612;1254;109250;-65
2023/09/18 10:16:31;;;;;;;3.30;2.30;;;;;;;36.98;17.61;101734.59;107589;1254;106773;-64
2023/09/18 10:19:14;;;;;;;5.60;2.90;;;;;;;37.04;17.10;101727.58;107629;1254;97832;-64
2023/09/18 10:22:11;;;;;;;6.00;3.00;;;;;;;37.15;17.93;101720.30;107577;1254;98450;-64
2023/09/18 10:24:43;;;;;;;16.80;3.90;;;;;;;37.50;17.12;101710.51;107373;1251;110810;-64
2023/09/18 10:27:14;;;;;;;;;;;;;;;37.63;16.40;101712.11;107620;1254;109837;-64
2023/09/18 10:29:44;;;;;;;5.50;2.80;;;;;;;37.50;16.44;101712.48;107538;1254;108487;-64
2023/09/18 10:32:14;;;;;;;7.40;2.50;;;;;;;37.56;16.80;101705.63;107531;1254;97738;-64
2023/09/18 10:34:44;;;;;;;6.50;2.80;;;;;;;37.70;17.21;101703.14;107632;1254;97906;-65
2023/09/18 10:37:14;;;;;;;11.70;3.60;;;;;;;38.03;16.65;101702.67;107612;1254;112061;-65
2023/09/18 10:39:45;;;;;;;6.30;3.70;;;;;;;38.26;16.63;101700.06;107594;1254;109849;-64
2023/09/18 10:42:18;;;;;;;9.60;3.20;;;;;;;38.53;16.30;101697.84;107509;1256;107126;-65
2023/09/18 10:44:47;;;;;;;5.00;2.90;;;;;;;38.68;16.06;101687.98;107544;1254;97832;-65
2023/09/18 10:47:18;;;;;;;10.30;3.20;;;;;;;38.70;16.46;101675.58;107578;1254;97807;-64
2023/09/18 10:49:49;;;;;;;14.10;3.50;;;;;;;38.80;16.44;101674.14;107622;1252;111572;-65
2023/09/18 10:52:18;;;;;;;8.20;2.60;;;;;;;38.99;15.93;101682.30;107587;1254;109588;-65
2023/09/18 10:54:47;;;;;;;6.30;2.90;;;;;;;39.00;15.94;101676.33;107528;1254;107745;-65
2023/09/18 10:57:15;;;;;;;4.90;2.70;;;;;;;39.24;15.91;101674.13;107512;1255;97879;-65
2023/09/18 10:59:45;;;;;;;5.50;3.00;;;;;;;39.36;15.92;101666.53;107565;1254;97742;-65
2023/09/18 11:02:16;;;;;;;12.60;3.30;;;;;;;39.46;15.49;101663.17;107548;1254;110776;-65
2023/09/18 11:04:44;;;;;;;10.10;3.10;;;;;;;39.52;15.40;101661.75;107566;1256;108742;-65
2023/09/18 11:07:20;;;;;;;7.50;3.30;;;;;;;39.60;15.44;101661.21;107580;1254;108063;-63
2023/09/18 11:09:49;;;;;;;11.90;3.20;;;;;;;39.76;15.77;101662.16;107616;1254;97866;-64
2023/09/18 11:12:18;;;;;;;8.10;2.50;;;;;;;39.86;15.08;101664.75;107571;1254;97921;-65
2023/09/18 11:14:56;;;;;;;8.60;2.50;;;;;;;39.76;14.97;101657.02;107557;1255;112175;-65
2023/09/18 11:17:35;;;;;;;5.70;2.40;;;;;;;39.45;14.92;101655.71;107553;1254;109963;-66
2023/09/18 11:20:08;;;;;;;6.20;2.50;;;;;;;38.94;15.32;101654.00;107611;1256;107608;-64